Time;durP1;ratioP1;P1;durP2;ratioP2;P2;SDS_P1;SDS_P2;PMS_P1;PMS_P2;Temp;Humidity;BMP_temperature;BMP_pressure;BME280_temperature;BME280_humidity;BME280_pressure;Samples;Min_cycle;Max_cycle;Signal;HPM_P1;HPM_P2
2023/06/07 00:15:04;;;;;;;0.95;0.20;;;;;;;17.31;100.00;102055.88;10461854;28;20049;-77
2023/06/07 00:20:08;;;;;;;0.13;0.13;;;;;;;17.20;100.00;102060.00;10459175;28;20079;-77
2023/06/07 00:25:10;;;;;;;0.80;0.55;;;;;;;17.04;100.00;102054.53;10467708;28;20045;-77
2023/06/07 00:30:12;;;;;;;0.88;0.28;;;;;;;17.27;100.00;102062.75;10459513;28;20445;-76
2023/06/07 00:35:14;;;;;;;0.10;0.10;;;;;;;17.04;100.00;102058.88;10470894;28;20049;-77
2023/06/07 00:40:16;;;;;;;2.53;1.25;;;;;;;16.88;100.00;102055.97;10458982;28;20416;-77
2023/06/07 00:45:17;;;;;;;1.20;0.75;;;;;;;16.74;100.00;102049.63;10458975;28;20415;-78
2023/06/07 00:50:19;;;;;;;0.35;0.17;;;;;;;16.42;100.00;102048.13;10474870;28;20051;-78
2023/06/07 00:55:21;;;;;;;0.20;0.17;;;;;;;16.74;100.00;102047.91;10464714;28;20044;-77
2023/06/07 01:00:23;;;;;;;1.08;0.57;;;;;;;16.57;100.00;102037.19;10475720;28;20087;-77
2023/06/07 01:05:25;;;;;;;2.88;0.88;;;;;;;16.67;100.00;102042.56;10479839;28;20099;-78
2023/06/07 01:10:28;;;;;;;2.10;0.63;;;;;;;16.88;100.00;102042.94;10454702;28;20059;-77
2023/06/07 01:15:30;;;;;;;0.30;0.30;;;;;;;16.89;100.00;102041.22;10456424;28;20051;-79
2023/06/07 01:20:35;;;;;;;0.65;0.52;;;;;;;16.58;100.00;102048.44;10465036;28;20053;-78
2023/06/07 01:25:37;;;;;;;1.15;0.65;;;;;;;16.58;100.00;102048.44;10472845;28;20377;-78
2023/06/07 01:30:40;;;;;;;0.20;0.20;;;;;;;16.60;100.00;102047.66;10449057;28;20060;-77
2023/06/07 01:35:44;;;;;;;0.40;0.40;;;;;;;16.71;100.00;102044.34;10443773;28;20045;-78
2023/06/07 01:40:46;;;;;;;1.35;0.50;;;;;;;16.33;100.00;102047.97;10437395;28;20037;-77
2023/06/07 01:45:50;;;;;;;0.05;0.05;;;;;;;16.65;100.00;102039.91;10448278;28;20084;-77
2023/06/07 01:50:52;;;;;;;1.55;1.27;;;;;;;16.63;100.00;102047.69;10453805;28;20045;-77
2023/06/07 01:56:13;;;;;;;0.43;0.32;;;;;;;16.39;100.00;102042.91;10444310;28;20048;-77
2023/06/07 02:01:27;;;;;;;0.32;0.28;;;;;;;16.14;100.00;102039.78;10473249;28;20102;-78
2023/06/07 02:06:33;;;;;;;0.00;0.00;;;;;;;16.16;100.00;102035.50;10459783;28;20070;-77
2023/06/07 02:11:37;;;;;;;0.50;0.40;;;;;;;16.26;100.00;102043.50;10471853;28;20075;-77
2023/06/07 02:16:40;;;;;;;0.75;0.50;;;;;;;16.04;100.00;102040.44;10458295;28;20045;-78
2023/06/07 02:21:43;;;;;;;0.55;0.45;;;;;;;16.24;100.00;102037.38;10440834;28;20156;-79
2023/06/07 02:26:45;;;;;;;0.93;0.65;;;;;;;16.35;100.00;102038.47;10450307;28;20044;-77
2023/06/07 02:31:48;;;;;;;0.20;0.20;;;;;;;16.07;100.00;102055.22;10458183;28;20578;-77
2023/06/07 02:36:50;;;;;;;0.20;0.20;;;;;;;16.02;100.00;102052.53;10454721;28;20053;-77
2023/06/07 02:41:51;;;;;;;0.32;0.32;;;;;;;16.02;100.00;102047.34;10447536;28;20064;-77
2023/06/07 02:46:53;;;;;;;0.85;0.50;;;;;;;15.90;100.00;102047.06;10445233;28;20053;-77
2023/06/07 02:51:55;;;;;;;0.55;0.25;;;;;;;16.29;100.00;102052.25;10459697;28;20041;-77
2023/06/07 02:56:57;;;;;;;0.77;0.35;;;;;;;15.77;100.00;102051.94;10443965;28;20539;-77
2023/06/07 03:01:58;;;;;;;1.15;0.60;;;;;;;15.82;100.00;102050.31;10449233;28;20095;-77
2023/06/07 03:07:02;;;;;;;0.73;0.38;;;;;;;16.36;100.00;102057.56;10447005;28;20091;-77
2023/06/07 03:12:10;;;;;;;0.43;0.17;;;;;;;15.97;100.00;102060.22;10481948;28;20041;-77
2023/06/07 03:17:18;;;;;;;1.00;0.75;;;;;;;15.79;100.00;102058.06;10456830;28;20056;-77
2023/06/07 03:22:25;;;;;;;1.00;0.30;;;;;;;15.67;100.00;102053.44;10468569;28;20052;-78
2023/06/07 03:27:32;;;;;;;0.60;0.38;;;;;;;16.07;100.00;102048.28;10437446;28;20140;-77
2023/06/07 03:32:43;;;;;;;0.13;0.10;;;;;;;15.65;100.00;102056.88;10446343;28;20037;-77
2023/06/07 03:37:46;;;;;;;0.25;0.20;;;;;;;15.71;100.00;102060.47;10452798;28;20057;-78
2023/06/07 03:42:50;;;;;;;9.45;0.93;;;;;;;15.66;100.00;102058.63;10454189;28;20072;-77
2023/06/07 03:47:55;;;;;;;2.30;0.65;;;;;;;15.89;100.00;102060.91;10465730;28;20049;-77
2023/06/07 03:52:57;;;;;;;1.35;0.70;;;;;;;15.62;100.00;102061.97;10457736;28;20040;-77
2023/06/07 03:57:59;;;;;;;1.15;0.17;;;;;;;15.66;100.00;102056.03;10464636;28;20049;-77
2023/06/07 04:03:03;;;;;;;0.73;0.55;;;;;;;15.43;100.00;102051.16;10482683;28;20083;-77
2023/06/07 04:08:06;;;;;;;0.45;0.30;;;;;;;15.63;100.00;102055.94;10454841;28;20095;-78
2023/06/07 04:13:09;;;;;;;0.82;0.45;;;;;;;15.68;100.00;102056.91;10476742;28;20040;-77
2023/06/07 04:18:11;;;;;;;0.95;0.70;;;;;;;15.40;100.00;102056.28;10468584;28;20076;-78
2023/06/07 04:23:15;;;;;;;4.57;0.57;;;;;;;15.62;100.00;102059.38;10489019;28;20041;-79
2023/06/07 04:28:23;;;;;;;0.20;0.20;;;;;;;15.43;100.00;102065.84;10490382;28;20048;-77
2023/06/07 04:33:28;;;;;;;0.10;0.10;;;;;;;16.01;100.00;102055.97;10458875;28;20041;-77
2023/06/07 04:38:32;;;;;;;3.63;0.30;;;;;;;15.65;100.00;102049.06;10456734;28;20048;-78
2023/06/07 04:43:42;;;;;;;0.68;0.38;;;;;;;15.53;100.00;102052.25;10452171;28;20045;-78
2023/06/07 04:48:45;;;;;;;0.38;0.20;;;;;;;16.25;100.00;102054.75;10500357;28;20049;-77
2023/06/07 04:53:49;;;;;;;1.02;0.50;;;;;;;16.29;100.00;102056.53;10451324;28;20140;-77
2023/06/07 04:58:55;;;;;;;0.30;0.30;;;;;;;16.28;100.00;102065.19;10459089;28;20393;-78
2023/06/07 05:04:02;;;;;;;0.70;0.47;;;;;;;16.24;100.00;102060.78;10467769;28;20127;-78
2023/06/07 05:09:12;;;;;;;1.45;0.47;;;;;;;16.07;100.00;102066.50;10454501;28;20466;-77
2023/06/07 05:14:14;;;;;;;0.28;0.28;;;;;;;16.33;100.00;102063.59;10477718;28;20094;-77
2023/06/07 05:19:16;;;;;;;0.70;0.47;;;;;;;16.26;100.00;102056.50;10476328;28;20067;-78
2023/06/07 05:24:20;;;;;;;0.20;0.20;;;;;;;16.78;100.00;102057.53;10473553;28;20468;-79
2023/06/07 05:29:22;;;;;;;1.23;0.20;;;;;;;16.73;100.00;102061.75;10436017;28;20049;-81
2023/06/07 05:34:25;;;;;;;0.20;0.20;;;;;;;16.56;100.00;102055.38;10461010;28;20048;-81
2023/06/07 05:39:29;;;;;;;0.10;0.10;;;;;;;17.26;100.00;102065.31;10464859;28;20064;-80
2023/06/07 05:44:30;;;;;;;1.30;0.68;;;;;;;17.03;100.00;102078.81;10436821;28;20037;-81
2023/06/07 05:49:33;;;;;;;0.32;0.20;;;;;;;16.53;100.00;102081.31;10448591;28;20086;-81
2023/06/07 05:54:38;;;;;;;1.35;0.80;;;;;;;16.77;100.00;102074.00;10465262;28;20055;-82
2023/06/07 05:59:40;;;;;;;2.55;0.52;;;;;;;17.03;100.00;102073.59;10445160;28;20144;-82
2023/06/07 06:04:41;;;;;;;1.48;1.38;;;;;;;17.95;100.00;102082.84;10462196;28;20051;-81
2023/06/07 06:09:43;;;;;;;1.08;0.40;;;;;;;17.77;100.00;102080.00;10436468;28;20041;-82
2023/06/07 06:14:45;;;;;;;0.47;0.40;;;;;;;16.89;100.00;102090.66;10448848;28;20610;-83
2023/06/07 06:19:46;;;;;;;0.47;0.25;;;;;;;18.22;100.00;102088.50;10447333;28;20646;-81
2023/06/07 06:24:48;;;;;;;0.55;0.55;;;;;;;17.36;100.00;102080.25;10425404;28;20041;-82
2023/06/07 06:29:50;;;;;;;1.00;0.20;;;;;;;17.28;100.00;102084.47;10442557;28;20568;-82
2023/06/07 06:34:52;;;;;;;0.38;0.32;;;;;;;17.65;100.00;102098.09;10461907;28;20040;-81
2023/06/07 06:39:54;;;;;;;1.45;1.20;;;;;;;18.23;100.00;102086.75;10456145;28;20056;-82
2023/06/07 06:44:56;;;;;;;0.80;0.35;;;;;;;18.39;100.00;102083.50;10435530;28;20045;-81
2023/06/07 06:49:59;;;;;;;0.20;0.20;;;;;;;17.46;100.00;102093.44;10464011;28;20041;-83
2023/06/07 06:55:01;;;;;;;0.88;0.60;;;;;;;18.30;100.00;102096.41;10462242;28;20400;-81
2023/06/07 07:00:06;;;;;;;0.25;0.20;;;;;;;18.87;100.00;102104.91;10448708;28;20118;-81
2023/06/07 07:05:09;;;;;;;0.70;0.38;;;;;;;18.70;100.00;102107.34;10431521;28;20136;-83
2023/06/07 07:10:11;;;;;;;0.43;0.43;;;;;;;18.85;100.00;102105.75;10434105;28;20055;-82
2023/06/07 07:15:13;;;;;;;0.30;0.30;;;;;;;19.12;100.00;102104.31;10429904;28;20044;-83
2023/06/07 07:20:17;;;;;;;0.00;0.00;;;;;;;19.36;100.00;102106.25;10448633;28;20056;-82
2023/06/07 07:25:19;;;;;;;2.00;0.55;;;;;;;19.10;100.00;102113.88;10440908;28;20047;-82
2023/06/07 07:30:21;;;;;;;0.00;0.00;;;;;;;19.55;100.00;102114.25;10445236;28;20716;-81
2023/06/07 07:35:23;;;;;;;2.95;0.73;;;;;;;19.59;100.00;102116.91;10474235;28;20764;-81
2023/06/07 07:40:25;;;;;;;0.63;0.30;;;;;;;19.05;100.00;102134.75;10447709;28;20064;-81
2023/06/07 07:45:27;;;;;;;0.32;0.30;;;;;;;19.00;100.00;102131.19;10456964;28;20037;-84
2023/06/07 07:50:29;;;;;;;0.00;0.00;;;;;;;20.05;100.00;102131.22;10445437;28;20045;-83
2023/06/07 07:55:30;;;;;;;1.45;0.32;;;;;;;19.31;100.00;102142.81;10429464;28;20053;-81
2023/06/07 08:00:34;;;;;;;0.40;0.20;;;;;;;20.82;100.00;102131.56;10456971;28;20139;-81
2023/06/07 08:05:36;;;;;;;0.77;0.32;;;;;;;20.39;100.00;102127.03;10439106;28;20083;-82
2023/06/07 08:10:38;;;;;;;0.25;0.25;;;;;;;20.61;100.00;102121.88;10444000;28;20058;-82
2023/06/07 08:15:40;;;;;;;0.08;0.08;;;;;;;20.16;100.00;102132.13;10445333;28;20056;-80
2023/06/07 08:20:42;;;;;;;0.10;0.10;;;;;;;20.40;100.00;102128.75;10439865;28;20118;-81
2023/06/07 08:25:43;;;;;;;2.13;0.60;;;;;;;19.43;100.00;102120.28;10457991;28;20614;-82
2023/06/07 08:30:47;;;;;;;0.75;0.45;;;;;;;19.23;100.00;102135.75;10462169;28;20496;-81
2023/06/07 08:35:49;;;;;;;0.13;0.13;;;;;;;19.15;100.00;102133.09;10462285;28;20036;-81
2023/06/07 08:40:54;;;;;;;1.35;0.40;;;;;;;19.88;100.00;102123.25;10444944;28;20041;-81
2023/06/07 08:45:56;;;;;;;0.77;0.35;;;;;;;19.36;100.00;102114.09;10448507;28;20387;-82
2023/06/07 08:51:00;;;;;;;0.17;0.17;;;;;;;18.61;100.00;102116.81;10439062;28;20041;-83
2023/06/07 08:56:03;;;;;;;0.40;0.35;;;;;;;18.67;100.00;102112.53;10450238;28;20493;-83
2023/06/07 09:01:07;;;;;;;0.75;0.75;;;;;;;18.69;100.00;102105.59;10434878;28;20048;-83
2023/06/07 09:06:10;;;;;;;15.27;1.80;;;;;;;19.10;100.00;102111.28;10468901;28;20049;-84
2023/06/07 09:11:14;;;;;;;0.30;0.30;;;;;;;18.90;100.00;102096.22;10434674;28;20060;-83
2023/06/07 09:16:17;;;;;;;0.95;0.30;;;;;;;20.03;100.00;102104.16;10438634;28;20409;-82
2023/06/07 09:21:29;;;;;;;0.63;0.20;;;;;;;20.23;100.00;102094.66;10436568;28;20147;-84
2023/06/07 09:26:40;;;;;;;0.80;0.32;;;;;;;21.48;100.00;102091.44;10461140;28;20040;-83
2023/06/07 09:31:42;;;;;;;1.05;0.65;;;;;;;21.46;100.00;102103.69;10434015;28;20059;-83
2023/06/07 09:36:52;;;;;;;0.13;0.13;;;;;;;20.86;100.00;102111.50;10433871;28;20052;-83
2023/06/07 09:41:56;;;;;;;1.27;0.60;;;;;;;21.42;100.00;102096.69;10433909;28;20510;-83
2023/06/07 09:46:58;;;;;;;0.73;0.45;;;;;;;22.18;100.00;102093.97;10453434;28;20045;-84
2023/06/07 09:52:12;;;;;;;0.50;0.43;;;;;;;21.96;100.00;102101.03;10430808;28;20052;-83
2023/06/07 09:57:25;;;;;;;2.10;0.85;;;;;;;21.98;100.00;102091.41;10435718;28;20044;-82
2023/06/07 10:02:28;;;;;;;1.38;0.63;;;;;;;22.95;100.00;102097.97;10432955;28;20045;-82
2023/06/07 10:07:56;;;;;;;0.40;0.20;;;;;;;22.52;100.00;102103.50;10449370;28;20126;-81
2023/06/07 10:12:58;;;;;;;0.47;0.32;;;;;;;23.05;100.00;102094.38;10446427;28;20053;-81
2023/06/07 10:18:05;;;;;;;0.95;0.75;;;;;;;22.47;100.00;102101.75;10465810;28;20037;-82
2023/06/07 10:23:13;;;;;;;0.13;0.13;;;;;;;23.79;100.00;102086.78;10452220;28;20041;-81
2023/06/07 10:28:24;;;;;;;0.22;0.22;;;;;;;23.31;100.00;102088.09;10431098;28;20489;-81
2023/06/07 10:33:27;;;;;;;0.20;0.20;;;;;;;23.55;100.00;102083.50;10448397;28;20057;-80
2023/06/07 10:38:29;;;;;;;0.63;0.30;;;;;;;23.65;100.00;102071.13;10447917;28;20045;-81
2023/06/07 10:43:32;;;;;;;0.60;0.40;;;;;;;22.93;100.00;102082.22;10447456;28;20064;-83
2023/06/07 10:48:35;;;;;;;0.57;0.52;;;;;;;23.27;100.00;102070.59;10436967;28;20056;-82
2023/06/07 10:53:56;;;;;;;0.43;0.20;;;;;;;23.73;98.68;102066.66;10431888;28;20396;-82
2023/06/07 10:59:14;;;;;;;0.08;0.08;;;;;;;23.20;99.80;102071.50;10464926;28;20102;-82
2023/06/07 11:04:31;;;;;;;0.20;0.17;;;;;;;24.10;100.00;102060.09;10446021;28;20041;-81
2023/06/07 11:09:33;;;;;;;1.08;0.50;;;;;;;24.21;98.67;102056.44;10449980;28;20059;-82
2023/06/07 11:14:35;;;;;;;0.17;0.17;;;;;;;24.52;99.61;102055.19;10438314;28;20049;-81
2023/06/07 11:19:53;;;;;;;1.80;0.52;;;;;;;24.15;96.57;102053.03;10429473;28;20059;-80
2023/06/07 11:25:11;;;;;;;0.15;0.15;;;;;;;24.63;98.44;102049.75;10441119;28;20033;-82
2023/06/07 11:30:13;;;;;;;0.88;0.40;;;;;;;24.69;96.22;102055.81;10451054;28;20052;-81
2023/06/07 11:35:15;;;;;;;0.32;0.30;;;;;;;24.57;100.00;102050.69;10439278;28;20048;-81
2023/06/07 11:40:18;;;;;;;0.15;0.15;;;;;;;24.45;100.00;102046.47;10461213;28;20049;-81
2023/06/07 11:45:21;;;;;;;0.73;0.43;;;;;;;24.80;100.00;102041.59;10449407;28;20041;-81
2023/06/07 11:50:23;;;;;;;0.00;0.00;;;;;;;24.53;100.00;102041.97;10432506;28;20045;-80
2023/06/07 11:55:24;;;;;;;2.20;0.50;;;;;;;25.20;100.00;102040.97;10445279;28;20049;-81
2023/06/07 12:00:27;;;;;;;0.20;0.20;;;;;;;23.98;98.65;102040.09;10430165;28;20416;-81
2023/06/07 12:05:34;;;;;;;0.95;0.30;;;;;;;23.68;100.00;102040.38;10445283;28;20072;-82
2023/06/07 12:10:38;;;;;;;1.23;1.08;;;;;;;24.57;98.22;102027.00;10428768;28;20052;-81
2023/06/07 12:15:57;;;;;;;0.08;0.08;;;;;;;25.60;96.09;102019.13;10451871;28;20443;-80
2023/06/07 12:21:11;;;;;;;5.45;0.40;;;;;;;24.68;92.30;102009.31;10455198;28;20053;-81
2023/06/07 12:26:22;;;;;;;0.10;0.10;;;;;;;25.00;90.67;102004.38;10450883;28;20037;-81
2023/06/07 12:31:26;;;;;;;0.30;0.30;;;;;;;26.07;90.55;101997.06;10454033;28;20133;-78
2023/06/07 12:36:58;;;;;;;0.40;0.25;;;;;;;25.09;89.16;101984.88;10464863;28;20431;-79
2023/06/07 12:41:59;;;;;;;0.45;0.40;;;;;;;25.62;92.47;101977.75;10417015;28;20084;-78
2023/06/07 12:47:02;;;;;;;0.68;0.60;;;;;;;25.80;89.68;101984.44;10455884;28;20729;-78
2023/06/07 12:52:04;;;;;;;3.28;0.60;;;;;;;26.41;90.56;101975.19;10445541;28;20047;-78
2023/06/07 12:57:06;;;;;;;0.60;0.30;;;;;;;26.78;88.96;101968.19;10461637;28;20048;-80
2023/06/07 13:02:07;;;;;;;0.47;0.45;;;;;;;27.07;86.80;101964.75;10461618;28;20048;-79
2023/06/07 13:07:09;;;;;;;0.38;0.30;;;;;;;27.04;88.48;101954.28;10452195;28;20438;-77
2023/06/07 13:12:11;;;;;;;0.65;0.40;;;;;;;26.78;82.44;101958.47;10469746;28;20052;-80
2023/06/07 13:17:13;;;;;;;2.08;1.08;;;;;;;27.39;82.74;101942.72;10444282;28;20127;-79
2023/06/07 13:22:15;;;;;;;0.30;0.17;;;;;;;27.45;81.32;101939.06;10455498;28;20079;-79
2023/06/07 13:27:17;;;;;;;0.55;0.38;;;;;;;27.01;82.08;101943.78;10460764;28;20037;-78
2023/06/07 13:32:19;;;;;;;0.57;0.50;;;;;;;27.59;82.72;101940.47;10442508;28;20053;-77
2023/06/07 13:37:20;;;;;;;0.17;0.17;;;;;;;26.71;81.52;101938.34;10430610;28;20041;-78
2023/06/07 13:42:23;;;;;;;0.22;0.22;;;;;;;28.22;83.68;101927.06;10438812;28;20056;-77
2023/06/07 13:47:26;;;;;;;1.52;0.50;;;;;;;27.19;79.57;101921.25;10457460;28;20033;-78
2023/06/07 13:52:32;;;;;;;1.27;0.77;;;;;;;27.30;83.90;101923.56;10462766;28;20136;-78
2023/06/07 13:57:36;;;;;;;1.75;0.68;;;;;;;27.33;82.48;101918.22;10454480;28;20049;-77
2023/06/07 14:02:38;;;;;;;0.52;0.40;;;;;;;26.83;80.11;101913.41;10444437;28;20067;-78
2023/06/07 14:07:40;;;;;;;10.52;0.32;;;;;;;27.24;80.90;101909.63;10454408;28;20076;-78
2023/06/07 14:12:42;;;;;;;0.57;0.10;;;;;;;27.28;82.28;101905.13;10437684;28;20055;-78
2023/06/07 14:17:43;;;;;;;0.20;0.08;;;;;;;27.51;80.02;101893.03;10453576;28;20060;-78
2023/06/07 14:22:45;;;;;;;0.65;0.35;;;;;;;28.29;77.70;101878.25;10454852;28;20110;-79
2023/06/07 14:27:47;;;;;;;0.95;0.17;;;;;;;28.67;79.08;101867.28;10461979;28;20439;-78
2023/06/07 14:32:49;;;;;;;0.57;0.20;;;;;;;29.12;75.66;101864.78;10447446;28;20059;-78
2023/06/07 14:37:50;;;;;;;0.10;0.10;;;;;;;28.51;79.81;101851.91;10456457;28;20419;-77
2023/06/07 14:42:52;;;;;;;2.65;0.65;;;;;;;28.66;76.74;101850.50;10469815;28;20056;-78
2023/06/07 14:47:54;;;;;;;0.60;0.50;;;;;;;28.75;74.31;101852.84;10487417;28;20052;-78
2023/06/07 14:52:56;;;;;;;0.28;0.28;;;;;;;28.08;78.22;101838.31;10453851;28;20415;-77
2023/06/07 14:58:00;;;;;;;0.40;0.35;;;;;;;28.77;73.65;101845.72;10443757;28;20041;-77
2023/06/07 15:03:01;;;;;;;2.78;0.40;;;;;;;28.40;73.45;101844.34;10444447;28;20492;-78
2023/06/07 15:08:05;;;;;;;0.03;0.03;;;;;;;28.21;73.64;101837.91;10452155;28;20041;-78
2023/06/07 15:13:06;;;;;;;0.70;0.63;;;;;;;28.22;71.13;101829.03;10458156;28;20144;-79
2023/06/07 15:18:08;;;;;;;0.25;0.25;;;;;;;28.00;70.05;101829.72;10441157;28;20049;-79
2023/06/07 15:23:09;;;;;;;0.68;0.30;;;;;;;28.52;69.59;101815.66;10423626;28;20423;-78
2023/06/07 15:28:12;;;;;;;0.47;0.08;;;;;;;29.43;70.46;101826.47;10470300;28;20052;-77
2023/06/07 15:33:13;;;;;;;0.35;0.35;;;;;;;29.26;69.35;101818.28;10451800;28;20059;-77
2023/06/07 15:38:15;;;;;;;0.10;0.10;;;;;;;28.67;67.40;101824.84;10448393;28;20052;-77
2023/06/07 15:43:17;;;;;;;0.20;0.20;;;;;;;28.41;68.59;101821.34;10430838;28;20043;-78
2023/06/07 15:48:19;;;;;;;0.17;0.17;;;;;;;27.82;68.49;101816.16;10450315;28;20048;-77
2023/06/07 15:53:20;;;;;;;0.73;0.30;;;;;;;27.86;71.46;101822.22;10451090;28;20048;-77
2023/06/07 15:58:22;;;;;;;1.25;0.20;;;;;;;28.49;70.40;101806.88;10451160;28;20527;-78
2023/06/07 16:03:23;;;;;;;0.90;0.30;;;;;;;27.90;71.00;101813.28;10438732;28;20063;-77
2023/06/07 16:08:25;;;;;;;0.38;0.20;;;;;;;28.67;75.20;101804.50;10459932;28;20068;-79
2023/06/07 16:13:27;;;;;;;0.13;0.10;;;;;;;27.38;83.71;101800.75;10459913;28;20057;-80
2023/06/07 16:18:28;;;;;;;0.22;0.22;;;;;;;26.71;90.36;101792.97;10456113;28;20041;-80
2023/06/07 16:23:30;;;;;;;0.40;0.28;;;;;;;28.84;79.25;101790.66;10434762;28;20055;-79
2023/06/07 16:28:32;;;;;;;0.10;0.10;;;;;;;30.02;73.81;101783.41;10464718;28;20587;-80
2023/06/07 16:33:33;;;;;;;0.45;0.40;;;;;;;28.14;89.75;101787.78;10432933;28;20091;-78
2023/06/07 16:38:35;;;;;;;0.30;0.25;;;;;;;27.55;84.47;101791.47;10445980;28;20424;-83
2023/06/07 16:43:37;;;;;;;0.40;0.30;;;;;;;27.47;79.57;101789.03;10437969;28;20507;-82
2023/06/07 16:48:38;;;;;;;0.28;0.25;;;;;;;27.51;84.70;101785.41;10446784;28;20045;-82
2023/06/07 16:53:40;;;;;;;0.25;0.25;;;;;;;27.08;95.49;101786.66;10417933;28;20079;-82
2023/06/07 16:58:42;;;;;;;0.30;0.15;;;;;;;26.94;88.82;101784.44;10432359;28;20132;-82
2023/06/07 17:03:43;;;;;;;0.90;0.55;;;;;;;26.17;90.71;101787.38;10469714;28;20045;-82
2023/06/07 17:08:45;;;;;;;1.35;0.63;;;;;;;26.75;89.38;101786.72;10477830;28;20032;-83
2023/06/07 17:13:49;;;;;;;0.47;0.47;;;;;;;26.88;88.25;101789.91;10455987;28;20060;-82
2023/06/07 17:18:50;;;;;;;1.25;0.30;;;;;;;26.31;85.71;101781.72;10437033;28;20106;-82
2023/06/07 17:23:52;;;;;;;0.45;0.30;;;;;;;26.87;79.60;101783.72;10429369;28;20132;-83
2023/06/07 17:28:54;;;;;;;0.73;0.40;;;;;;;27.46;82.48;101776.72;10439910;28;20515;-83
2023/06/07 17:33:57;;;;;;;0.88;0.40;;;;;;;27.81;74.62;101772.06;10462926;28;20040;-82
2023/06/07 17:38:59;;;;;;;0.50;0.20;;;;;;;27.61;79.71;101780.69;10443474;28;20049;-82
2023/06/07 17:44:01;;;;;;;0.20;0.20;;;;;;;27.86;76.71;101777.22;10464425;28;20515;-82
2023/06/07 17:49:02;;;;;;;0.68;0.45;;;;;;;27.30;75.51;101778.06;10471556;28;20048;-84
2023/06/07 17:54:04;;;;;;;0.20;0.20;;;;;;;27.60;77.54;101783.34;10461266;28;20516;-82
2023/06/07 17:59:06;;;;;;;0.63;0.35;;;;;;;26.29;81.79;101786.16;10459040;28;20041;-82
2023/06/07 18:04:10;;;;;;;0.28;0.28;;;;;;;26.99;78.75;101784.31;10440019;28;20051;-81
2023/06/07 18:09:11;;;;;;;0.73;0.35;;;;;;;27.20;76.93;101788.06;10441549;28;20136;-82
2023/06/07 18:14:13;;;;;;;0.13;0.13;;;;;;;26.81;79.83;101791.84;10463238;28;20049;-81
2023/06/07 18:19:15;;;;;;;0.10;0.10;;;;;;;27.14;81.71;101794.44;10480912;28;20047;-81
2023/06/07 18:24:17;;;;;;;0.45;0.40;;;;;;;26.42;83.16;101802.56;10465123;28;20144;-81
2023/06/07 18:29:19;;;;;;;0.10;0.10;;;;;;;26.04;87.62;101807.00;10478753;28;20045;-80
2023/06/07 18:34:20;;;;;;;1.55;1.08;;;;;;;28.01;90.57;101799.69;10473321;28;20033;-81
2023/06/07 18:39:22;;;;;;;0.45;0.32;;;;;;;30.96;98.61;101792.59;10446558;28;20078;-81
2023/06/07 18:44:24;;;;;;;0.10;0.03;;;;;;;26.65;88.33;101809.00;10459947;28;20448;-82
2023/06/07 18:49:26;;;;;;;0.20;0.10;;;;;;;28.05;77.42;101805.75;10454253;28;20065;-80
2023/06/07 18:54:27;;;;;;;0.50;0.50;;;;;;;27.66;80.09;101817.59;10449622;28;20080;-80
2023/06/07 18:59:29;;;;;;;1.10;0.40;;;;;;;27.73;78.03;101821.78;10454273;28;20052;-80
2023/06/07 19:04:31;;;;;;;0.13;0.10;;;;;;;27.02;82.15;101829.16;10449190;28;20413;-80
2023/06/07 19:09:33;;;;;;;0.20;0.10;;;;;;;26.81;80.73;101830.66;10454032;28;20086;-80
2023/06/07 19:14:35;;;;;;;1.45;0.65;;;;;;;26.63;85.69;101831.97;10468075;28;20045;-80
2023/06/07 19:19:37;;;;;;;0.50;0.32;;;;;;;29.32;100.00;101823.38;10452118;28;20382;-80
2023/06/07 19:24:42;;;;;;;0.68;0.40;;;;;;;26.18;87.09;101831.34;10449429;28;20049;-80
2023/06/07 19:29:45;;;;;;;0.88;0.63;;;;;;;28.03;82.29;101830.50;10437086;28;20041;-79
2023/06/07 19:34:48;;;;;;;0.45;0.22;;;;;;;24.75;96.08;101833.50;10466560;28;20496;-80
2023/06/07 19:39:50;;;;;;;0.98;0.40;;;;;;;24.04;98.83;101840.81;10462396;28;20079;-80
2023/06/07 19:44:52;;;;;;;0.93;0.57;;;;;;;23.68;99.89;101853.59;10447140;28;20068;-81
2023/06/07 19:49:54;;;;;;;6.18;1.00;;;;;;;27.81;77.77;101851.50;10442511;28;20071;-79
2023/06/07 19:54:55;;;;;;;0.55;0.40;;;;;;;27.26;74.45;101861.09;10439224;28;20056;-80
2023/06/07 19:59:57;;;;;;;0.25;0.17;;;;;;;27.19;72.64;101856.00;10453859;28;20044;-80
2023/06/07 20:04:59;;;;;;;1.27;0.52;;;;;;;26.46;74.87;101867.66;10473195;28;20052;-80
2023/06/07 20:10:04;;;;;;;0.03;0.03;;;;;;;27.02;74.00;101861.78;10454741;28;20084;-79
2023/06/07 20:15:09;;;;;;;0.30;0.20;;;;;;;26.81;71.14;101876.44;10442712;28;20389;-80
2023/06/07 20:20:11;;;;;;;0.50;0.22;;;;;;;26.66;71.51;101879.47;10461862;28;20083;-80
2023/06/07 20:25:15;;;;;;;1.35;0.50;;;;;;;26.66;72.79;101868.88;10453966;28;20037;-80
2023/06/07 20:30:16;;;;;;;2.20;0.38;;;;;;;26.63;73.11;101874.25;10468102;28;20045;-80
2023/06/07 20:35:18;;;;;;;0.45;0.40;;;;;;;26.50;73.69;101869.28;10453065;28;20052;-82
2023/06/07 20:40:21;;;;;;;0.10;0.10;;;;;;;26.53;70.86;101879.78;10440653;28;20731;-80
2023/06/07 20:45:23;;;;;;;0.32;0.20;;;;;;;26.22;71.79;101875.28;10450063;28;20488;-81
2023/06/07 20:50:25;;;;;;;1.02;0.40;;;;;;;26.54;71.38;101876.25;10463586;28;20111;-81
2023/06/07 20:55:34;;;;;;;0.45;0.20;;;;;;;24.39;82.62;101884.13;10441621;28;20510;-80
2023/06/07 21:00:35;;;;;;;0.40;0.30;;;;;;;24.42;81.93;101877.97;10466621;28;20052;-81
2023/06/07 21:05:37;;;;;;;0.43;0.20;;;;;;;24.44;82.44;101880.56;10455302;28;20055;-81
2023/06/07 21:10:39;;;;;;;0.10;0.10;;;;;;;24.15;86.22;101876.66;10468515;28;20063;-80
2023/06/07 21:15:41;;;;;;;0.32;0.20;;;;;;;24.29;84.82;101866.78;10442214;28;20037;-82
2023/06/07 21:20:43;;;;;;;0.50;0.50;;;;;;;23.70;87.94;101870.25;10454971;28;20132;-81
2023/06/07 21:25:44;;;;;;;0.40;0.20;;;;;;;23.45;91.42;101874.97;10453414;28;20029;-82
2023/06/07 21:30:46;;;;;;;0.38;0.30;;;;;;;23.20;94.66;101874.34;10446418;28;20513;-82
2023/06/07 21:35:48;;;;;;;0.35;0.35;;;;;;;22.96;95.72;101868.47;10444190;28;20071;-81
2023/06/07 21:40:49;;;;;;;0.95;0.65;;;;;;;23.14;95.29;101878.78;10452400;28;20415;-82
2023/06/07 21:45:51;;;;;;;0.45;0.20;;;;;;;22.67;97.65;101895.91;10421800;28;20052;-82
2023/06/07 21:50:53;;;;;;;2.28;1.13;;;;;;;22.76;99.18;101898.44;10434558;28;20156;-82
2023/06/07 21:55:54;;;;;;;0.20;0.20;;;;;;;22.78;98.04;101901.06;10440627;28;20041;-82
2023/06/07 22:00:56;;;;;;;0.40;0.20;;;;;;;22.81;98.24;101904.53;10442529;28;20083;-82
2023/06/07 22:06:00;;;;;;;1.08;0.50;;;;;;;22.81;97.72;101906.28;10434475;28;20053;-83
2023/06/07 22:11:02;;;;;;;1.10;0.40;;;;;;;23.07;98.13;101890.25;10448666;28;20080;-81
2023/06/07 22:16:04;;;;;;;0.55;0.55;;;;;;;22.64;98.75;101895.91;10446762;28;20049;-82
2023/06/07 22:21:06;;;;;;;0.30;0.30;;;;;;;22.42;100.00;101897.84;10443682;28;20053;-82
2023/06/07 22:26:08;;;;;;;0.52;0.45;;;;;;;22.65;99.64;101885.41;10448712;28;20037;-81
2023/06/07 22:31:09;;;;;;;1.65;0.40;;;;;;;23.10;98.32;101892.84;10450601;28;20071;-82
2023/06/07 22:36:11;;;;;;;0.17;0.17;;;;;;;22.25;100.00;101900.56;10429948;28;20120;-82
2023/06/07 22:41:13;;;;;;;0.90;0.52;;;;;;;21.89;100.00;101898.19;10449798;28;20052;-82
2023/06/07 22:46:15;;;;;;;0.55;0.35;;;;;;;21.90;100.00;101901.66;10432499;28;20083;-82
2023/06/07 22:51:17;;;;;;;1.13;0.52;;;;;;;22.34;100.00;101895.25;10457797;28;20504;-81
2023/06/07 22:56:19;;;;;;;0.63;0.50;;;;;;;22.03;100.00;101891.09;10429764;28;20045;-81
2023/06/07 23:01:22;;;;;;;0.17;0.17;;;;;;;22.07;100.00;101894.56;10434889;28;20135;-81
2023/06/07 23:06:31;;;;;;;1.25;1.15;;;;;;;21.74;100.00;101899.13;10438752;28;20153;-81
2023/06/07 23:11:33;;;;;;;0.45;0.43;;;;;;;22.39;100.00;101883.00;10448441;28;20052;-81
2023/06/07 23:16:35;;;;;;;0.47;0.43;;;;;;;22.50;100.00;101885.53;10431488;28;20045;-81